sensor_id;sensor_type;location;lat;lon;timestamp;temperature;humidity
42097;DHT22;27754;45.414;11.084;2022-07-23T00:00:18;27.80;48.90
42097;DHT22;27754;45.414;11.084;2022-07-23T00:02:45;27.80;49.20
42097;DHT22;27754;45.414;11.084;2022-07-23T00:05:12;27.80;49.70
42097;DHT22;27754;45.414;11.084;2022-07-23T00:07:39;27.80;49.20
42097;DHT22;27754;45.414;11.084;2022-07-23T00:10:07;27.80;49.10
42097;DHT22;27754;45.414;11.084;2022-07-23T00:12:34;27.80;49.40
42097;DHT22;27754;45.414;11.084;2022-07-23T00:15:02;27.70;50.10
42097;DHT22;27754;45.414;11.084;2022-07-23T00:17:29;27.50;50.80
42097;DHT22;27754;45.414;11.084;2022-07-23T00:19:56;27.50;50.30
42097;DHT22;27754;45.414;11.084;2022-07-23T00:22:23;27.30;49.80
42097;DHT22;27754;45.414;11.084;2022-07-23T00:24:50;27.30;50.50
42097;DHT22;27754;45.414;11.084;2022-07-23T00:27:37;27.20;50.80
42097;DHT22;27754;45.414;11.084;2022-07-23T00:30:04;27.00;50.30
42097;DHT22;27754;45.414;11.084;2022-07-23T00:32:32;27.00;51.20
42097;DHT22;27754;45.414;11.084;2022-07-23T00:35:26;27.10;51.80
42097;DHT22;27754;45.414;11.084;2022-07-23T00:37:54;27.20;52.90
42097;DHT22;27754;45.414;11.084;2022-07-23T00:40:22;27.10;53.30
42097;DHT22;27754;45.414;11.084;2022-07-23T00:42:49;27.20;53.80
42097;DHT22;27754;45.414;11.084;2022-07-23T00:45:16;27.10;54.40
42097;DHT22;27754;45.414;11.084;2022-07-23T00:47:44;27.00;54.90
42097;DHT22;27754;45.414;11.084;2022-07-23T00:50:11;26.80;55.50
42097;DHT22;27754;45.414;11.084;2022-07-23T00:52:39;26.60;55.80
42097;DHT22;27754;45.414;11.084;2022-07-23T00:55:09;26.40;56.20
42097;DHT22;27754;45.414;11.084;2022-07-23T00:57:36;26.10;57.20
42097;DHT22;27754;45.414;11.084;2022-07-23T01:00:05;25.90;57.30
42097;DHT22;27754;45.414;11.084;2022-07-23T01:02:33;25.80;57.50
42097;DHT22;27754;45.414;11.084;2022-07-23T01:05:00;25.80;58.00
42097;DHT22;27754;45.414;11.084;2022-07-23T01:07:28;25.70;58.20
42097;DHT22;27754;45.414;11.084;2022-07-23T01:09:55;25.50;58.70
42097;DHT22;27754;45.414;11.084;2022-07-23T01:12:22;25.50;58.90
42097;DHT22;27754;45.414;11.084;2022-07-23T01:15:00;25.50;59.10
42097;DHT22;27754;45.414;11.084;2022-07-23T01:17:28;25.40;59.30
42097;DHT22;27754;45.414;11.084;2022-07-23T01:19:55;25.50;59.10
42097;DHT22;27754;45.414;11.084;2022-07-23T01:22:28;25.70;58.80
42097;DHT22;27754;45.414;11.084;2022-07-23T01:24:55;25.80;58.20
42097;DHT22;27754;45.414;11.084;2022-07-23T01:27:24;25.90;57.90
42097;DHT22;27754;45.414;11.084;2022-07-23T01:29:57;25.80;57.90
42097;DHT22;27754;45.414;11.084;2022-07-23T01:32:25;25.90;57.90
42097;DHT22;27754;45.414;11.084;2022-07-23T01:34:52;26.00;56.30
42097;DHT22;27754;45.414;11.084;2022-07-23T01:37:19;26.20;55.50
42097;DHT22;27754;45.414;11.084;2022-07-23T01:39:47;26.40;54.90
42097;DHT22;27754;45.414;11.084;2022-07-23T01:42:14;26.40;54.70
42097;DHT22;27754;45.414;11.084;2022-07-23T01:44:43;26.50;54.40
42097;DHT22;27754;45.414;11.084;2022-07-23T01:47:17;26.50;54.30
42097;DHT22;27754;45.414;11.084;2022-07-23T01:49:45;26.50;54.50
42097;DHT22;27754;45.414;11.084;2022-07-23T01:52:26;26.40;55.00
42097;DHT22;27754;45.414;11.084;2022-07-23T01:54:54;26.20;55.70
42097;DHT22;27754;45.414;11.084;2022-07-23T01:57:21;26.10;56.00
42097;DHT22;27754;45.414;11.084;2022-07-23T01:59:48;25.90;56.00
42097;DHT22;27754;45.414;11.084;2022-07-23T02:02:18;25.70;55.50
42097;DHT22;27754;45.414;11.084;2022-07-23T02:04:45;25.60;56.20
42097;DHT22;27754;45.414;11.084;2022-07-23T02:07:12;25.50;56.90
42097;DHT22;27754;45.414;11.084;2022-07-23T02:09:39;25.50;57.60
42097;DHT22;27754;45.414;11.084;2022-07-23T02:12:06;25.40;58.20
42097;DHT22;27754;45.414;11.084;2022-07-23T02:14:33;25.50;58.20
42097;DHT22;27754;45.414;11.084;2022-07-23T02:17:05;25.60;57.40
42097;DHT22;27754;45.414;11.084;2022-07-23T02:19:32;25.80;55.40
42097;DHT22;27754;45.414;11.084;2022-07-23T02:22:01;25.90;55.90
42097;DHT22;27754;45.414;11.084;2022-07-23T02:24:28;25.80;55.90
42097;DHT22;27754;45.414;11.084;2022-07-23T02:26:55;25.80;55.60
42097;DHT22;27754;45.414;11.084;2022-07-23T02:29:22;25.80;56.10
42097;DHT22;27754;45.414;11.084;2022-07-23T02:31:49;25.80;56.70
42097;DHT22;27754;45.414;11.084;2022-07-23T02:34:16;25.70;56.90
42097;DHT22;27754;45.414;11.084;2022-07-23T02:36:43;25.70;57.50
42097;DHT22;27754;45.414;11.084;2022-07-23T02:39:11;25.60;57.70
42097;DHT22;27754;45.414;11.084;2022-07-23T02:41:38;25.60;57.80
42097;DHT22;27754;45.414;11.084;2022-07-23T02:44:05;25.70;57.70
42097;DHT22;27754;45.414;11.084;2022-07-23T02:46:32;25.60;58.40
42097;DHT22;27754;45.414;11.084;2022-07-23T02:49:01;25.50;59.00
42097;DHT22;27754;45.414;11.084;2022-07-23T02:51:30;25.50;59.50
42097;DHT22;27754;45.414;11.084;2022-07-23T02:54:01;25.20;60.10
42097;DHT22;27754;45.414;11.084;2022-07-23T02:56:28;24.80;60.60
42097;DHT22;27754;45.414;11.084;2022-07-23T02:58:56;24.70;61.40
42097;DHT22;27754;45.414;11.084;2022-07-23T03:01:24;24.80;61.30
42097;DHT22;27754;45.414;11.084;2022-07-23T03:03:51;24.80;61.50
42097;DHT22;27754;45.414;11.084;2022-07-23T03:06:18;24.90;61.50
42097;DHT22;27754;45.414;11.084;2022-07-23T03:08:45;24.90;61.10
42097;DHT22;27754;45.414;11.084;2022-07-23T03:11:12;25.00;61.20
42097;DHT22;27754;45.414;11.084;2022-07-23T03:13:41;25.10;60.60
42097;DHT22;27754;45.414;11.084;2022-07-23T03:16:08;25.10;60.40
42097;DHT22;27754;45.414;11.084;2022-07-23T03:18:36;25.30;59.60
42097;DHT22;27754;45.414;11.084;2022-07-23T03:21:07;25.40;59.30
42097;DHT22;27754;45.414;11.084;2022-07-23T03:23:34;25.40;59.40
42097;DHT22;27754;45.414;11.084;2022-07-23T03:26:01;25.30;59.50
42097;DHT22;27754;45.414;11.084;2022-07-23T03:28:28;25.50;58.90
42097;DHT22;27754;45.414;11.084;2022-07-23T03:30:55;25.60;58.00
42097;DHT22;27754;45.414;11.084;2022-07-23T03:33:23;25.50;56.50
42097;DHT22;27754;45.414;11.084;2022-07-23T03:35:50;25.40;56.70
42097;DHT22;27754;45.414;11.084;2022-07-23T03:38:24;25.30;56.70
42097;DHT22;27754;45.414;11.084;2022-07-23T03:40:52;25.20;56.00
42097;DHT22;27754;45.414;11.084;2022-07-23T03:43:20;25.30;55.60
42097;DHT22;27754;45.414;11.084;2022-07-23T03:45:47;25.30;55.00
42097;DHT22;27754;45.414;11.084;2022-07-23T03:48:14;25.40;55.40
42097;DHT22;27754;45.414;11.084;2022-07-23T03:50:43;25.30;55.80
42097;DHT22;27754;45.414;11.084;2022-07-23T03:53:10;25.30;55.60
42097;DHT22;27754;45.414;11.084;2022-07-23T03:55:37;25.40;55.20
42097;DHT22;27754;45.414;11.084;2022-07-23T03:58:04;25.50;54.70
42097;DHT22;27754;45.414;11.084;2022-07-23T04:00:31;25.60;53.80
42097;DHT22;27754;45.414;11.084;2022-07-23T04:02:59;25.60;53.50
42097;DHT22;27754;45.414;11.084;2022-07-23T04:05:28;25.70;53.20
42097;DHT22;27754;45.414;11.084;2022-07-23T04:08:04;25.80;53.00
42097;DHT22;27754;45.414;11.084;2022-07-23T04:10:32;25.80;53.30
42097;DHT22;27754;45.414;11.084;2022-07-23T04:12:59;25.80;53.80
42097;DHT22;27754;45.414;11.084;2022-07-23T04:15:27;25.80;54.00
42097;DHT22;27754;45.414;11.084;2022-07-23T04:17:54;25.60;55.00
42097;DHT22;27754;45.414;11.084;2022-07-23T04:20:25;25.30;56.30
42097;DHT22;27754;45.414;11.084;2022-07-23T04:22:57;25.20;57.70
42097;DHT22;27754;45.414;11.084;2022-07-23T04:25:24;25.10;57.20
42097;DHT22;27754;45.414;11.084;2022-07-23T04:27:51;25.20;56.80
42097;DHT22;27754;45.414;11.084;2022-07-23T04:30:18;25.30;56.90
42097;DHT22;27754;45.414;11.084;2022-07-23T04:32:45;25.30;57.00
42097;DHT22;27754;45.414;11.084;2022-07-23T04:35:19;25.30;56.90
42097;DHT22;27754;45.414;11.084;2022-07-23T04:37:46;25.30;57.20
42097;DHT22;27754;45.414;11.084;2022-07-23T04:40:14;25.00;57.50
42097;DHT22;27754;45.414;11.084;2022-07-23T04:42:41;24.80;59.20
42097;DHT22;27754;45.414;11.084;2022-07-23T04:45:09;24.90;58.60
42097;DHT22;27754;45.414;11.084;2022-07-23T04:47:39;24.90;58.60
42097;DHT22;27754;45.414;11.084;2022-07-23T04:50:07;24.90;58.00
42097;DHT22;27754;45.414;11.084;2022-07-23T04:52:36;25.00;58.00
42097;DHT22;27754;45.414;11.084;2022-07-23T04:55:03;25.30;56.80
42097;DHT22;27754;45.414;11.084;2022-07-23T04:57:30;25.40;55.30
42097;DHT22;27754;45.414;11.084;2022-07-23T04:59:58;25.50;55.40
42097;DHT22;27754;45.414;11.084;2022-07-23T05:02:25;25.60;55.20
42097;DHT22;27754;45.414;11.084;2022-07-23T05:04:52;25.80;55.10
42097;DHT22;27754;45.414;11.084;2022-07-23T05:07:19;25.90;55.40
42097;DHT22;27754;45.414;11.084;2022-07-23T05:09:46;25.90;54.00
42097;DHT22;27754;45.414;11.084;2022-07-23T05:12:13;26.00;54.10
42097;DHT22;27754;45.414;11.084;2022-07-23T05:14:42;26.20;54.00
42097;DHT22;27754;45.414;11.084;2022-07-23T05:17:09;26.30;53.30
42097;DHT22;27754;45.414;11.084;2022-07-23T05:19:36;26.60;52.90
42097;DHT22;27754;45.414;11.084;2022-07-23T05:22:03;26.70;52.10
42097;DHT22;27754;45.414;11.084;2022-07-23T05:24:30;27.00;51.40
42097;DHT22;27754;45.414;11.084;2022-07-23T05:26:57;27.30;49.90
42097;DHT22;27754;45.414;11.084;2022-07-23T05:29:26;27.60;48.60
42097;DHT22;27754;45.414;11.084;2022-07-23T05:31:53;27.80;48.00
42097;DHT22;27754;45.414;11.084;2022-07-23T05:34:21;27.70;48.70
42097;DHT22;27754;45.414;11.084;2022-07-23T05:36:48;27.80;47.80
42097;DHT22;27754;45.414;11.084;2022-07-23T05:39:16;28.10;47.40
42097;DHT22;27754;45.414;11.084;2022-07-23T05:41:43;28.30;47.40
42097;DHT22;27754;45.414;11.084;2022-07-23T05:44:10;28.60;46.50
42097;DHT22;27754;45.414;11.084;2022-07-23T05:46:39;28.80;45.10
42097;DHT22;27754;45.414;11.084;2022-07-23T05:49:09;28.50;45.40
42097;DHT22;27754;45.414;11.084;2022-07-23T05:51:55;28.50;45.50
42097;DHT22;27754;45.414;11.084;2022-07-23T05:54:34;29.00;45.20
42097;DHT22;27754;45.414;11.084;2022-07-23T05:57:03;29.30;44.90
42097;DHT22;27754;45.414;11.084;2022-07-23T05:59:30;29.50;45.10
42097;DHT22;27754;45.414;11.084;2022-07-23T06:01:57;29.80;44.50
42097;DHT22;27754;45.414;11.084;2022-07-23T06:04:26;29.90;47.10
42097;DHT22;27754;45.414;11.084;2022-07-23T06:07:11;29.90;50.10
42097;DHT22;27754;45.414;11.084;2022-07-23T06:09:38;30.30;51.20
42097;DHT22;27754;45.414;11.084;2022-07-23T06:12:06;30.50;50.10
42097;DHT22;27754;45.414;11.084;2022-07-23T06:14:34;30.80;48.20
42097;DHT22;27754;45.414;11.084;2022-07-23T06:17:01;31.00;46.80
42097;DHT22;27754;45.414;11.084;2022-07-23T06:19:30;31.20;45.40
42097;DHT22;27754;45.414;11.084;2022-07-23T06:21:59;31.40;44.60
42097;DHT22;27754;45.414;11.084;2022-07-23T06:24:27;31.40;44.50
42097;DHT22;27754;45.414;11.084;2022-07-23T06:26:54;31.60;44.80
42097;DHT22;27754;45.414;11.084;2022-07-23T06:29:21;31.70;44.50
42097;DHT22;27754;45.414;11.084;2022-07-23T06:31:48;31.80;43.70
42097;DHT22;27754;45.414;11.084;2022-07-23T06:34:15;32.00;43.20
42097;DHT22;27754;45.414;11.084;2022-07-23T06:36:42;32.20;42.40
42097;DHT22;27754;45.414;11.084;2022-07-23T06:39:10;32.30;42.10
42097;DHT22;27754;45.414;11.084;2022-07-23T06:41:37;32.40;42.10
42097;DHT22;27754;45.414;11.084;2022-07-23T06:44:04;32.50;42.80
42097;DHT22;27754;45.414;11.084;2022-07-23T06:46:34;32.70;42.80
42097;DHT22;27754;45.414;11.084;2022-07-23T06:49:01;32.80;45.70
42097;DHT22;27754;45.414;11.084;2022-07-23T06:51:29;32.80;45.80
42097;DHT22;27754;45.414;11.084;2022-07-23T06:53:56;32.90;45.60
42097;DHT22;27754;45.414;11.084;2022-07-23T06:56:23;32.90;45.80
42097;DHT22;27754;45.414;11.084;2022-07-23T06:58:50;32.00;44.70
42097;DHT22;27754;45.414;11.084;2022-07-23T07:01:17;31.70;45.40
42097;DHT22;27754;45.414;11.084;2022-07-23T07:03:44;31.70;46.80
42097;DHT22;27754;45.414;11.084;2022-07-23T07:06:11;31.60;45.50
42097;DHT22;27754;45.414;11.084;2022-07-23T07:08:38;31.60;47.60
42097;DHT22;27754;45.414;11.084;2022-07-23T07:11:05;31.70;45.70
42097;DHT22;27754;45.414;11.084;2022-07-23T07:13:32;31.70;46.60
42097;DHT22;27754;45.414;11.084;2022-07-23T07:15:59;31.60;47.80
42097;DHT22;27754;45.414;11.084;2022-07-23T07:18:26;31.50;49.10
42097;DHT22;27754;45.414;11.084;2022-07-23T07:20:53;31.70;48.10
42097;DHT22;27754;45.414;11.084;2022-07-23T07:23:22;31.80;47.80
42097;DHT22;27754;45.414;11.084;2022-07-23T07:25:49;31.90;48.10
42097;DHT22;27754;45.414;11.084;2022-07-23T07:28:17;32.10;48.30
42097;DHT22;27754;45.414;11.084;2022-07-23T07:30:44;32.20;48.10
42097;DHT22;27754;45.414;11.084;2022-07-23T07:33:11;32.20;48.00
42097;DHT22;27754;45.414;11.084;2022-07-23T07:35:38;32.10;48.80
42097;DHT22;27754;45.414;11.084;2022-07-23T07:38:05;31.80;49.70
42097;DHT22;27754;45.414;11.084;2022-07-23T07:40:32;31.70;49.40
42097;DHT22;27754;45.414;11.084;2022-07-23T07:43:00;31.70;49.10
42097;DHT22;27754;45.414;11.084;2022-07-23T07:45:30;31.80;49.30
42097;DHT22;27754;45.414;11.084;2022-07-23T07:47:57;31.80;50.00
42097;DHT22;27754;45.414;11.084;2022-07-23T07:50:24;32.10;48.90
42097;DHT22;27754;45.414;11.084;2022-07-23T07:52:51;32.00;48.40
42097;DHT22;27754;45.414;11.084;2022-07-23T07:55:18;32.00;49.20
42097;DHT22;27754;45.414;11.084;2022-07-23T07:57:45;32.30;49.40
42097;DHT22;27754;45.414;11.084;2022-07-23T08:00:15;32.30;50.00
42097;DHT22;27754;45.414;11.084;2022-07-23T08:02:46;32.60;49.30
42097;DHT22;27754;45.414;11.084;2022-07-23T08:05:18;32.60;49.00
42097;DHT22;27754;45.414;11.084;2022-07-23T08:07:52;32.90;48.50
42097;DHT22;27754;45.414;11.084;2022-07-23T08:10:19;33.00;48.20
42097;DHT22;27754;45.414;11.084;2022-07-23T08:12:48;32.90;48.40
42097;DHT22;27754;45.414;11.084;2022-07-23T08:15:18;33.20;49.10
42097;DHT22;27754;45.414;11.084;2022-07-23T08:17:46;33.30;47.70
42097;DHT22;27754;45.414;11.084;2022-07-23T08:20:15;33.50;47.70
42097;DHT22;27754;45.414;11.084;2022-07-23T08:22:42;33.70;46.70
42097;DHT22;27754;45.414;11.084;2022-07-23T08:25:10;33.90;46.50
42097;DHT22;27754;45.414;11.084;2022-07-23T08:27:37;34.00;45.00
42097;DHT22;27754;45.414;11.084;2022-07-23T08:30:04;34.20;44.80
42097;DHT22;27754;45.414;11.084;2022-07-23T08:32:31;34.30;44.10
42097;DHT22;27754;45.414;11.084;2022-07-23T08:35:11;34.60;43.50
42097;DHT22;27754;45.414;11.084;2022-07-23T08:37:38;34.90;43.40
42097;DHT22;27754;45.414;11.084;2022-07-23T08:40:05;35.00;42.90
42097;DHT22;27754;45.414;11.084;2022-07-23T08:42:33;35.10;41.50
42097;DHT22;27754;45.414;11.084;2022-07-23T08:45:03;35.20;42.00
42097;DHT22;27754;45.414;11.084;2022-07-23T08:47:31;35.20;42.30
42097;DHT22;27754;45.414;11.084;2022-07-23T08:49:58;35.00;42.20
42097;DHT22;27754;45.414;11.084;2022-07-23T08:52:26;34.80;42.70
42097;DHT22;27754;45.414;11.084;2022-07-23T08:54:55;34.50;44.00
42097;DHT22;27754;45.414;11.084;2022-07-23T08:57:23;34.40;43.20
42097;DHT22;27754;45.414;11.084;2022-07-23T08:59:50;34.70;42.50
42097;DHT22;27754;45.414;11.084;2022-07-23T09:02:17;34.90;41.70
42097;DHT22;27754;45.414;11.084;2022-07-23T09:04:44;35.10;41.00
42097;DHT22;27754;45.414;11.084;2022-07-23T09:07:11;35.20;40.60
42097;DHT22;27754;45.414;11.084;2022-07-23T09:10:09;35.10;41.50
42097;DHT22;27754;45.414;11.084;2022-07-23T09:12:37;35.10;42.50
42097;DHT22;27754;45.414;11.084;2022-07-23T09:15:08;35.20;42.90
42097;DHT22;27754;45.414;11.084;2022-07-23T09:17:40;35.40;42.10
42097;DHT22;27754;45.414;11.084;2022-07-23T09:20:15;35.30;42.40
42097;DHT22;27754;45.414;11.084;2022-07-23T09:22:46;35.30;42.00
42097;DHT22;27754;45.414;11.084;2022-07-23T09:25:16;35.30;41.90
42097;DHT22;27754;45.414;11.084;2022-07-23T09:27:51;35.30;42.10
42097;DHT22;27754;45.414;11.084;2022-07-23T09:30:23;35.30;42.60
42097;DHT22;27754;45.414;11.084;2022-07-23T09:33:11;35.30;40.40
42097;DHT22;27754;45.414;11.084;2022-07-23T09:35:53;35.40;39.10
42097;DHT22;27754;45.414;11.084;2022-07-23T09:38:23;35.50;38.10
42097;DHT22;27754;45.414;11.084;2022-07-23T09:41:10;35.70;38.60
42097;DHT22;27754;45.414;11.084;2022-07-23T09:43:37;35.70;41.40
42097;DHT22;27754;45.414;11.084;2022-07-23T09:46:27;35.70;38.00
42097;DHT22;27754;45.414;11.084;2022-07-23T09:48:56;35.50;37.90
42097;DHT22;27754;45.414;11.084;2022-07-23T09:51:24;35.60;38.00
42097;DHT22;27754;45.414;11.084;2022-07-23T09:53:53;35.80;38.20
42097;DHT22;27754;45.414;11.084;2022-07-23T09:56:21;35.80;37.10
42097;DHT22;27754;45.414;11.084;2022-07-23T09:58:54;35.90;38.40
42097;DHT22;27754;45.414;11.084;2022-07-23T10:01:32;36.00;38.00
42097;DHT22;27754;45.414;11.084;2022-07-23T10:04:01;35.90;37.50
42097;DHT22;27754;45.414;11.084;2022-07-23T10:06:48;36.00;38.10
42097;DHT22;27754;45.414;11.084;2022-07-23T10:09:39;35.80;38.60
42097;DHT22;27754;45.414;11.084;2022-07-23T10:12:27;36.20;38.00
42097;DHT22;27754;45.414;11.084;2022-07-23T10:15:00;36.20;37.60
42097;DHT22;27754;45.414;11.084;2022-07-23T10:17:30;36.40;36.60
42097;DHT22;27754;45.414;11.084;2022-07-23T10:19:57;36.20;35.90
42097;DHT22;27754;45.414;11.084;2022-07-23T10:23:01;36.40;33.20
42097;DHT22;27754;45.414;11.084;2022-07-23T10:25:32;36.40;32.10
42097;DHT22;27754;45.414;11.084;2022-07-23T10:39:26;36.80;31.40
42097;DHT22;27754;45.414;11.084;2022-07-23T10:42:11;36.60;31.50
42097;DHT22;27754;45.414;11.084;2022-07-23T10:44:46;36.50;30.20
42097;DHT22;27754;45.414;11.084;2022-07-23T10:47:30;36.60;30.10
42097;DHT22;27754;45.414;11.084;2022-07-23T10:50:27;36.60;30.40
42097;DHT22;27754;45.414;11.084;2022-07-23T10:53:14;36.40;29.60
42097;DHT22;27754;45.414;11.084;2022-07-23T10:55:45;36.30;31.30
42097;DHT22;27754;45.414;11.084;2022-07-23T10:58:18;36.50;31.30
42097;DHT22;27754;45.414;11.084;2022-07-23T11:00:48;36.70;31.10
42097;DHT22;27754;45.414;11.084;2022-07-23T11:05:57;37.00;31.60
42097;DHT22;27754;45.414;11.084;2022-07-23T11:08:24;37.00;30.30
42097;DHT22;27754;45.414;11.084;2022-07-23T11:11:08;36.90;31.10
42097;DHT22;27754;45.414;11.084;2022-07-23T11:13:45;37.10;30.40
42097;DHT22;27754;45.414;11.084;2022-07-23T11:16:18;37.10;30.30
42097;DHT22;27754;45.414;11.084;2022-07-23T11:24:08;36.60;31.70
42097;DHT22;27754;45.414;11.084;2022-07-23T11:27:08;36.50;31.20
42097;DHT22;27754;45.414;11.084;2022-07-23T11:32:08;36.20;30.90
42097;DHT22;27754;45.414;11.084;2022-07-23T11:34:41;36.10;31.00
42097;DHT22;27754;45.414;11.084;2022-07-23T11:37:11;36.10;31.70
42097;DHT22;27754;45.414;11.084;2022-07-23T11:39:39;36.30;32.10
42097;DHT22;27754;45.414;11.084;2022-07-23T11:42:07;36.10;32.80
42097;DHT22;27754;45.414;11.084;2022-07-23T11:44:38;35.90;33.60
42097;DHT22;27754;45.414;11.084;2022-07-23T11:47:10;35.90;34.60
42097;DHT22;27754;45.414;11.084;2022-07-23T11:49:41;36.00;34.50
42097;DHT22;27754;45.414;11.084;2022-07-23T11:52:22;35.90;35.10
42097;DHT22;27754;45.414;11.084;2022-07-23T11:55:01;35.90;35.20
42097;DHT22;27754;45.414;11.084;2022-07-23T11:57:34;36.20;36.70
42097;DHT22;27754;45.414;11.084;2022-07-23T12:00:22;36.20;34.80
42097;DHT22;27754;45.414;11.084;2022-07-23T12:02:52;36.50;34.90
42097;DHT22;27754;45.414;11.084;2022-07-23T12:05:23;36.50;35.50
42097;DHT22;27754;45.414;11.084;2022-07-23T12:07:52;36.40;36.10
42097;DHT22;27754;45.414;11.084;2022-07-23T12:10:22;36.50;36.20
42097;DHT22;27754;45.414;11.084;2022-07-23T12:12:58;36.70;35.40
42097;DHT22;27754;45.414;11.084;2022-07-23T12:15:31;36.40;35.90
42097;DHT22;27754;45.414;11.084;2022-07-23T12:18:02;36.50;35.90
42097;DHT22;27754;45.414;11.084;2022-07-23T12:20:34;36.60;36.30
42097;DHT22;27754;45.414;11.084;2022-07-23T12:23:04;36.60;36.60
42097;DHT22;27754;45.414;11.084;2022-07-23T12:25:35;36.90;34.50
42097;DHT22;27754;45.414;11.084;2022-07-23T12:28:04;36.90;34.40
42097;DHT22;27754;45.414;11.084;2022-07-23T12:30:42;37.20;34.60
42097;DHT22;27754;45.414;11.084;2022-07-23T12:33:31;37.20;34.10
42097;DHT22;27754;45.414;11.084;2022-07-23T12:36:00;37.20;35.10
42097;DHT22;27754;45.414;11.084;2022-07-23T12:38:36;37.10;34.50
42097;DHT22;27754;45.414;11.084;2022-07-23T12:41:04;37.20;34.20
42097;DHT22;27754;45.414;11.084;2022-07-23T12:43:33;37.30;34.70
42097;DHT22;27754;45.414;11.084;2022-07-23T12:46:14;37.30;34.70
42097;DHT22;27754;45.414;11.084;2022-07-23T12:51:22;37.40;33.80
42097;DHT22;27754;45.414;11.084;2022-07-23T12:53:54;37.50;34.20
42097;DHT22;27754;45.414;11.084;2022-07-23T12:56:44;37.30;34.30
42097;DHT22;27754;45.414;11.084;2022-07-23T12:59:15;37.50;33.90
42097;DHT22;27754;45.414;11.084;2022-07-23T13:01:57;37.60;33.00
42097;DHT22;27754;45.414;11.084;2022-07-23T13:04:28;37.80;33.30
42097;DHT22;27754;45.414;11.084;2022-07-23T13:06:57;37.60;32.50
42097;DHT22;27754;45.414;11.084;2022-07-23T13:09:28;37.70;34.30
42097;DHT22;27754;45.414;11.084;2022-07-23T13:12:00;37.60;34.50
42097;DHT22;27754;45.414;11.084;2022-07-23T13:14:28;37.80;34.10
42097;DHT22;27754;45.414;11.084;2022-07-23T13:16:55;38.00;34.80
42097;DHT22;27754;45.414;11.084;2022-07-23T13:19:25;38.00;35.00
42097;DHT22;27754;45.414;11.084;2022-07-23T13:21:54;38.20;34.30
42097;DHT22;27754;45.414;11.084;2022-07-23T13:24:21;38.10;33.90
42097;DHT22;27754;45.414;11.084;2022-07-23T13:26:48;38.00;34.50
42097;DHT22;27754;45.414;11.084;2022-07-23T13:29:19;37.80;34.50
42097;DHT22;27754;45.414;11.084;2022-07-23T13:31:46;37.80;35.40
42097;DHT22;27754;45.414;11.084;2022-07-23T13:34:17;37.80;35.70
42097;DHT22;27754;45.414;11.084;2022-07-23T13:36:45;37.80;35.60
42097;DHT22;27754;45.414;11.084;2022-07-23T13:39:12;37.60;35.60
42097;DHT22;27754;45.414;11.084;2022-07-23T13:41:40;37.80;36.00
42097;DHT22;27754;45.414;11.084;2022-07-23T13:44:17;37.70;35.20
42097;DHT22;27754;45.414;11.084;2022-07-23T13:46:44;37.70;34.50
42097;DHT22;27754;45.414;11.084;2022-07-23T13:49:13;37.80;34.00
42097;DHT22;27754;45.414;11.084;2022-07-23T13:51:41;37.80;33.60
42097;DHT22;27754;45.414;11.084;2022-07-23T13:54:08;37.90;34.00
42097;DHT22;27754;45.414;11.084;2022-07-23T13:56:35;37.80;34.80
42097;DHT22;27754;45.414;11.084;2022-07-23T13:59:03;37.80;35.00
42097;DHT22;27754;45.414;11.084;2022-07-23T14:01:33;37.90;34.20
42097;DHT22;27754;45.414;11.084;2022-07-23T14:04:21;38.10;33.90
42097;DHT22;27754;45.414;11.084;2022-07-23T14:06:48;38.20;34.20
42097;DHT22;27754;45.414;11.084;2022-07-23T14:09:19;38.10;34.80
42097;DHT22;27754;45.414;11.084;2022-07-23T14:11:46;38.00;33.90
42097;DHT22;27754;45.414;11.084;2022-07-23T14:14:13;38.00;34.00
42097;DHT22;27754;45.414;11.084;2022-07-23T14:16:41;38.00;34.40
42097;DHT22;27754;45.414;11.084;2022-07-23T14:19:08;38.10;34.70
42097;DHT22;27754;45.414;11.084;2022-07-23T14:21:36;38.00;35.30
42097;DHT22;27754;45.414;11.084;2022-07-23T14:24:05;38.30;34.30
42097;DHT22;27754;45.414;11.084;2022-07-23T14:26:32;38.40;34.30
42097;DHT22;27754;45.414;11.084;2022-07-23T14:28:59;38.30;34.90
42097;DHT22;27754;45.414;11.084;2022-07-23T14:31:27;38.30;35.00
42097;DHT22;27754;45.414;11.084;2022-07-23T14:33:54;38.20;35.60
42097;DHT22;27754;45.414;11.084;2022-07-23T14:36:21;38.40;35.20
42097;DHT22;27754;45.414;11.084;2022-07-23T14:38:48;38.30;34.60
42097;DHT22;27754;45.414;11.084;2022-07-23T14:41:15;37.80;34.40
42097;DHT22;27754;45.414;11.084;2022-07-23T14:43:43;37.80;35.40
42097;DHT22;27754;45.414;11.084;2022-07-23T14:46:12;37.80;35.60
42097;DHT22;27754;45.414;11.084;2022-07-23T14:48:39;37.80;35.50
42097;DHT22;27754;45.414;11.084;2022-07-23T14:51:06;38.00;35.70
42097;DHT22;27754;45.414;11.084;2022-07-23T14:53:33;38.00;36.20
42097;DHT22;27754;45.414;11.084;2022-07-23T14:56:00;37.80;36.00
42097;DHT22;27754;45.414;11.084;2022-07-23T14:58:29;37.60;36.50
42097;DHT22;27754;45.414;11.084;2022-07-23T15:00:56;37.60;36.60
42097;DHT22;27754;45.414;11.084;2022-07-23T15:03:23;37.50;36.70
42097;DHT22;27754;45.414;11.084;2022-07-23T15:06:06;37.60;36.90
42097;DHT22;27754;45.414;11.084;2022-07-23T15:08:33;37.60;36.60
42097;DHT22;27754;45.414;11.084;2022-07-23T15:11:00;37.70;37.00
42097;DHT22;27754;45.414;11.084;2022-07-23T15:13:27;37.60;37.10
42097;DHT22;27754;45.414;11.084;2022-07-23T15:15:54;37.50;36.90
42097;DHT22;27754;45.414;11.084;2022-07-23T15:18:22;37.40;37.50
42097;DHT22;27754;45.414;11.084;2022-07-23T15:20:49;37.30;37.40
42097;DHT22;27754;45.414;11.084;2022-07-23T15:23:17;37.30;37.90
42097;DHT22;27754;45.414;11.084;2022-07-23T15:25:44;37.40;37.90
42097;DHT22;27754;45.414;11.084;2022-07-23T15:28:16;37.40;38.30
42097;DHT22;27754;45.414;11.084;2022-07-23T15:30:48;37.30;38.40
42097;DHT22;27754;45.414;11.084;2022-07-23T15:33:16;37.20;38.20
42097;DHT22;27754;45.414;11.084;2022-07-23T15:35:48;37.20;38.80
42097;DHT22;27754;45.414;11.084;2022-07-23T15:38:16;37.30;38.60
42097;DHT22;27754;45.414;11.084;2022-07-23T15:40:53;37.30;38.70
42097;DHT22;27754;45.414;11.084;2022-07-23T15:43:22;37.30;38.50
42097;DHT22;27754;45.414;11.084;2022-07-23T15:45:49;37.40;38.90
42097;DHT22;27754;45.414;11.084;2022-07-23T15:48:18;37.60;38.40
42097;DHT22;27754;45.414;11.084;2022-07-23T15:50:46;37.60;38.30
42097;DHT22;27754;45.414;11.084;2022-07-23T15:53:13;38.00;37.90
42097;DHT22;27754;45.414;11.084;2022-07-23T15:55:41;38.00;37.90